sensor_id;sensor_type;location;lat;lon;timestamp;P1;durP1;ratioP1;P2;durP2;ratioP2
57047;SDS011;42934;54.294;18.598;2023-05-07T00:01:13;11.77;;;5.57;;
57047;SDS011;42934;54.294;18.598;2023-05-07T00:03:44;11.88;;;5.28;;
57047;SDS011;42934;54.294;18.598;2023-05-07T00:06:14;10.82;;;5.70;;
57047;SDS011;42934;54.294;18.598;2023-05-07T00:08:44;11.20;;;5.88;;
57047;SDS011;42934;54.294;18.598;2023-05-07T00:11:13;8.40;;;5.75;;
57047;SDS011;42934;54.294;18.598;2023-05-07T00:13:42;13.48;;;5.47;;
57047;SDS011;42934;54.294;18.598;2023-05-07T00:16:13;8.77;;;5.93;;
57047;SDS011;42934;54.294;18.598;2023-05-07T00:18:42;9.20;;;5.55;;
57047;SDS011;42934;54.294;18.598;2023-05-07T00:21:12;10.40;;;5.95;;
57047;SDS011;42934;54.294;18.598;2023-05-07T00:23:41;10.57;;;6.00;;
57047;SDS011;42934;54.294;18.598;2023-05-07T00:26:10;13.57;;;5.72;;
57047;SDS011;42934;54.294;18.598;2023-05-07T00:28:41;9.13;;;5.75;;
57047;SDS011;42934;54.294;18.598;2023-05-07T00:31:10;12.20;;;6.05;;
57047;SDS011;42934;54.294;18.598;2023-05-07T00:33:40;8.77;;;6.00;;
57047;SDS011;42934;54.294;18.598;2023-05-07T00:36:10;9.02;;;5.25;;
57047;SDS011;42934;54.294;18.598;2023-05-07T00:38:39;10.33;;;5.60;;
57047;SDS011;42934;54.294;18.598;2023-05-07T00:41:08;9.35;;;5.47;;
57047;SDS011;42934;54.294;18.598;2023-05-07T00:43:37;6.68;;;4.68;;
57047;SDS011;42934;54.294;18.598;2023-05-07T00:46:07;8.20;;;5.33;;
57047;SDS011;42934;54.294;18.598;2023-05-07T00:48:37;8.10;;;5.05;;
57047;SDS011;42934;54.294;18.598;2023-05-07T00:51:07;10.73;;;5.18;;
57047;SDS011;42934;54.294;18.598;2023-05-07T00:53:38;10.77;;;5.18;;
57047;SDS011;42934;54.294;18.598;2023-05-07T00:56:07;7.40;;;4.72;;
57047;SDS011;42934;54.294;18.598;2023-05-07T00:58:38;8.15;;;4.88;;
57047;SDS011;42934;54.294;18.598;2023-05-07T01:01:08;6.78;;;4.82;;
57047;SDS011;42934;54.294;18.598;2023-05-07T01:03:37;10.75;;;4.97;;
57047;SDS011;42934;54.294;18.598;2023-05-07T01:06:08;10.98;;;4.68;;
57047;SDS011;42934;54.294;18.598;2023-05-07T01:08:44;7.53;;;4.65;;
57047;SDS011;42934;54.294;18.598;2023-05-07T01:11:13;7.88;;;4.78;;
57047;SDS011;42934;54.294;18.598;2023-05-07T01:13:43;7.65;;;4.97;;
57047;SDS011;42934;54.294;18.598;2023-05-07T01:16:13;7.90;;;4.55;;
57047;SDS011;42934;54.294;18.598;2023-05-07T01:18:42;8.05;;;4.85;;
57047;SDS011;42934;54.294;18.598;2023-05-07T01:21:15;7.55;;;4.72;;
57047;SDS011;42934;54.294;18.598;2023-05-07T01:23:47;7.15;;;4.57;;
57047;SDS011;42934;54.294;18.598;2023-05-07T01:26:17;7.00;;;4.55;;
57047;SDS011;42934;54.294;18.598;2023-05-07T01:28:47;7.55;;;4.28;;
57047;SDS011;42934;54.294;18.598;2023-05-07T01:31:16;7.43;;;4.75;;
57047;SDS011;42934;54.294;18.598;2023-05-07T01:33:47;9.02;;;4.60;;
57047;SDS011;42934;54.294;18.598;2023-05-07T01:36:19;8.13;;;5.15;;
57047;SDS011;42934;54.294;18.598;2023-05-07T01:38:54;7.88;;;4.55;;
57047;SDS011;42934;54.294;18.598;2023-05-07T01:41:24;8.23;;;4.45;;
57047;SDS011;42934;54.294;18.598;2023-05-07T01:43:54;8.48;;;5.00;;
57047;SDS011;42934;54.294;18.598;2023-05-07T01:46:24;10.73;;;4.47;;
57047;SDS011;42934;54.294;18.598;2023-05-07T01:48:55;7.82;;;5.10;;
57047;SDS011;42934;54.294;18.598;2023-05-07T01:51:24;9.13;;;4.82;;
57047;SDS011;42934;54.294;18.598;2023-05-07T01:53:56;10.05;;;5.30;;
57047;SDS011;42934;54.294;18.598;2023-05-07T01:56:25;10.30;;;5.20;;
57047;SDS011;42934;54.294;18.598;2023-05-07T01:58:55;10.70;;;5.47;;
57047;SDS011;42934;54.294;18.598;2023-05-07T02:01:24;13.48;;;5.63;;
57047;SDS011;42934;54.294;18.598;2023-05-07T02:03:54;9.25;;;5.50;;
57047;SDS011;42934;54.294;18.598;2023-05-07T02:06:26;9.50;;;5.22;;
57047;SDS011;42934;54.294;18.598;2023-05-07T02:09:02;9.48;;;5.20;;
57047;SDS011;42934;54.294;18.598;2023-05-07T02:14:00;11.05;;;5.50;;
57047;SDS011;42934;54.294;18.598;2023-05-07T02:16:29;10.30;;;5.28;;
57047;SDS011;42934;54.294;18.598;2023-05-07T02:18:59;13.82;;;5.43;;
57047;SDS011;42934;54.294;18.598;2023-05-07T02:21:28;10.30;;;6.10;;
57047;SDS011;42934;54.294;18.598;2023-05-07T02:23:58;10.47;;;5.73;;
57047;SDS011;42934;54.294;18.598;2023-05-07T02:26:28;8.65;;;5.80;;
57047;SDS011;42934;54.294;18.598;2023-05-07T02:28:58;13.02;;;6.10;;
57047;SDS011;42934;54.294;18.598;2023-05-07T02:31:27;11.13;;;5.78;;
57047;SDS011;42934;54.294;18.598;2023-05-07T02:33:56;9.40;;;6.00;;
57047;SDS011;42934;54.294;18.598;2023-05-07T02:36:25;10.27;;;6.35;;
57047;SDS011;42934;54.294;18.598;2023-05-07T02:39:02;12.15;;;6.97;;
57047;SDS011;42934;54.294;18.598;2023-05-07T02:41:33;14.48;;;7.80;;
57047;SDS011;42934;54.294;18.598;2023-05-07T02:44:02;9.27;;;6.47;;
57047;SDS011;42934;54.294;18.598;2023-05-07T02:46:32;12.18;;;6.53;;
57047;SDS011;42934;54.294;18.598;2023-05-07T02:49:07;8.85;;;5.60;;
57047;SDS011;42934;54.294;18.598;2023-05-07T02:51:36;9.90;;;5.50;;
57047;SDS011;42934;54.294;18.598;2023-05-07T02:54:10;9.25;;;5.70;;
57047;SDS011;42934;54.294;18.598;2023-05-07T02:56:41;9.93;;;6.35;;
57047;SDS011;42934;54.294;18.598;2023-05-07T02:59:10;8.48;;;5.38;;
57047;SDS011;42934;54.294;18.598;2023-05-07T03:01:41;12.07;;;6.53;;
57047;SDS011;42934;54.294;18.598;2023-05-07T03:04:12;9.80;;;5.72;;
57047;SDS011;42934;54.294;18.598;2023-05-07T03:06:42;8.02;;;5.03;;
57047;SDS011;42934;54.294;18.598;2023-05-07T03:09:11;10.13;;;5.88;;
57047;SDS011;42934;54.294;18.598;2023-05-07T03:11:42;9.95;;;5.65;;
57047;SDS011;42934;54.294;18.598;2023-05-07T03:14:12;11.15;;;5.65;;
57047;SDS011;42934;54.294;18.598;2023-05-07T03:16:41;11.98;;;6.07;;
57047;SDS011;42934;54.294;18.598;2023-05-07T03:19:10;12.23;;;6.13;;
57047;SDS011;42934;54.294;18.598;2023-05-07T03:21:39;9.30;;;6.32;;
57047;SDS011;42934;54.294;18.598;2023-05-07T03:24:08;11.77;;;6.05;;
57047;SDS011;42934;54.294;18.598;2023-05-07T03:26:38;10.13;;;6.38;;
57047;SDS011;42934;54.294;18.598;2023-05-07T03:29:08;12.75;;;6.32;;
57047;SDS011;42934;54.294;18.598;2023-05-07T03:34:07;17.20;;;5.97;;
57047;SDS011;42934;54.294;18.598;2023-05-07T03:36:36;11.63;;;6.30;;
57047;SDS011;42934;54.294;18.598;2023-05-07T03:39:08;14.32;;;7.32;;
57047;SDS011;42934;54.294;18.598;2023-05-07T03:41:39;9.05;;;6.22;;
57047;SDS011;42934;54.294;18.598;2023-05-07T03:44:10;11.38;;;6.13;;
57047;SDS011;42934;54.294;18.598;2023-05-07T03:46:40;10.88;;;5.75;;
57047;SDS011;42934;54.294;18.598;2023-05-07T03:51:39;21.70;;;9.40;;
57047;SDS011;42934;54.294;18.598;2023-05-07T03:54:09;18.97;;;8.60;;
57047;SDS011;42934;54.294;18.598;2023-05-07T03:56:42;14.38;;;7.70;;
57047;SDS011;42934;54.294;18.598;2023-05-07T03:59:13;13.27;;;6.93;;
57047;SDS011;42934;54.294;18.598;2023-05-07T04:01:44;14.05;;;6.50;;
57047;SDS011;42934;54.294;18.598;2023-05-07T04:04:16;9.85;;;6.10;;
57047;SDS011;42934;54.294;18.598;2023-05-07T04:06:45;11.97;;;6.27;;
57047;SDS011;42934;54.294;18.598;2023-05-07T04:09:15;8.83;;;6.17;;
57047;SDS011;42934;54.294;18.598;2023-05-07T04:11:46;10.82;;;6.25;;
57047;SDS011;42934;54.294;18.598;2023-05-07T04:14:16;12.57;;;6.03;;
57047;SDS011;42934;54.294;18.598;2023-05-07T04:16:46;12.52;;;5.90;;
57047;SDS011;42934;54.294;18.598;2023-05-07T04:19:15;11.40;;;5.25;;
57047;SDS011;42934;54.294;18.598;2023-05-07T04:21:46;9.13;;;5.63;;
57047;SDS011;42934;54.294;18.598;2023-05-07T04:24:15;8.77;;;5.60;;
57047;SDS011;42934;54.294;18.598;2023-05-07T04:26:45;8.48;;;4.72;;
57047;SDS011;42934;54.294;18.598;2023-05-07T04:29:14;8.80;;;4.88;;
57047;SDS011;42934;54.294;18.598;2023-05-07T04:31:45;12.73;;;5.82;;
57047;SDS011;42934;54.294;18.598;2023-05-07T04:34:14;9.60;;;5.43;;
57047;SDS011;42934;54.294;18.598;2023-05-07T04:36:43;10.52;;;5.38;;
57047;SDS011;42934;54.294;18.598;2023-05-07T04:39:13;8.53;;;6.10;;
57047;SDS011;42934;54.294;18.598;2023-05-07T04:41:45;12.25;;;6.50;;
57047;SDS011;42934;54.294;18.598;2023-05-07T04:44:16;14.60;;;5.60;;
57047;SDS011;42934;54.294;18.598;2023-05-07T04:46:47;11.05;;;5.75;;
57047;SDS011;42934;54.294;18.598;2023-05-07T04:49:16;10.53;;;5.40;;
57047;SDS011;42934;54.294;18.598;2023-05-07T04:51:45;8.52;;;5.15;;
57047;SDS011;42934;54.294;18.598;2023-05-07T04:54:18;7.43;;;4.60;;
57047;SDS011;42934;54.294;18.598;2023-05-07T04:56:48;8.05;;;4.72;;
57047;SDS011;42934;54.294;18.598;2023-05-07T04:59:18;7.57;;;4.70;;
57047;SDS011;42934;54.294;18.598;2023-05-07T05:01:49;5.97;;;4.22;;
57047;SDS011;42934;54.294;18.598;2023-05-07T05:04:18;7.97;;;3.78;;
57047;SDS011;42934;54.294;18.598;2023-05-07T05:06:48;6.53;;;3.72;;
57047;SDS011;42934;54.294;18.598;2023-05-07T05:09:17;7.40;;;3.63;;
57047;SDS011;42934;54.294;18.598;2023-05-07T05:11:46;7.32;;;3.67;;
57047;SDS011;42934;54.294;18.598;2023-05-07T05:14:16;7.13;;;4.00;;
57047;SDS011;42934;54.294;18.598;2023-05-07T05:16:46;6.95;;;4.03;;
57047;SDS011;42934;54.294;18.598;2023-05-07T05:19:16;5.57;;;3.43;;
57047;SDS011;42934;54.294;18.598;2023-05-07T05:21:45;9.80;;;3.67;;
57047;SDS011;42934;54.294;18.598;2023-05-07T05:24:14;4.95;;;3.42;;
57047;SDS011;42934;54.294;18.598;2023-05-07T05:26:44;5.63;;;3.50;;
57047;SDS011;42934;54.294;18.598;2023-05-07T05:29:13;5.20;;;3.43;;
57047;SDS011;42934;54.294;18.598;2023-05-07T05:31:44;7.40;;;3.25;;
57047;SDS011;42934;54.294;18.598;2023-05-07T05:34:13;8.38;;;3.22;;
57047;SDS011;42934;54.294;18.598;2023-05-07T05:36:43;4.50;;;3.10;;
57047;SDS011;42934;54.294;18.598;2023-05-07T05:39:14;6.45;;;3.20;;
57047;SDS011;42934;54.294;18.598;2023-05-07T05:41:44;4.82;;;3.25;;
57047;SDS011;42934;54.294;18.598;2023-05-07T05:44:13;5.63;;;3.03;;
57047;SDS011;42934;54.294;18.598;2023-05-07T05:46:44;8.65;;;3.33;;
57047;SDS011;42934;54.294;18.598;2023-05-07T05:49:13;5.22;;;3.65;;
57047;SDS011;42934;54.294;18.598;2023-05-07T05:51:42;5.15;;;3.38;;
57047;SDS011;42934;54.294;18.598;2023-05-07T05:54:13;5.13;;;3.00;;
57047;SDS011;42934;54.294;18.598;2023-05-07T05:56:43;5.82;;;3.42;;
57047;SDS011;42934;54.294;18.598;2023-05-07T05:59:13;5.63;;;3.53;;
57047;SDS011;42934;54.294;18.598;2023-05-07T06:01:43;6.93;;;3.20;;
57047;SDS011;42934;54.294;18.598;2023-05-07T06:04:13;7.85;;;3.03;;
57047;SDS011;42934;54.294;18.598;2023-05-07T06:06:42;6.50;;;3.30;;
57047;SDS011;42934;54.294;18.598;2023-05-07T06:09:12;5.45;;;3.22;;
57047;SDS011;42934;54.294;18.598;2023-05-07T06:11:43;4.47;;;3.15;;
57047;SDS011;42934;54.294;18.598;2023-05-07T06:14:14;5.20;;;3.55;;
57047;SDS011;42934;54.294;18.598;2023-05-07T06:16:45;5.82;;;3.13;;
57047;SDS011;42934;54.294;18.598;2023-05-07T06:19:14;5.85;;;3.55;;
57047;SDS011;42934;54.294;18.598;2023-05-07T06:21:44;4.20;;;3.08;;
57047;SDS011;42934;54.294;18.598;2023-05-07T06:24:14;6.20;;;3.17;;
57047;SDS011;42934;54.294;18.598;2023-05-07T06:26:43;4.22;;;3.20;;
57047;SDS011;42934;54.294;18.598;2023-05-07T06:29:13;8.00;;;3.30;;
57047;SDS011;42934;54.294;18.598;2023-05-07T06:31:42;5.38;;;3.50;;
57047;SDS011;42934;54.294;18.598;2023-05-07T06:34:14;6.97;;;3.10;;
57047;SDS011;42934;54.294;18.598;2023-05-07T06:36:43;5.25;;;3.25;;
57047;SDS011;42934;54.294;18.598;2023-05-07T06:39:31;3.92;;;2.80;;
57047;SDS011;42934;54.294;18.598;2023-05-07T06:42:00;7.68;;;3.03;;
57047;SDS011;42934;54.294;18.598;2023-05-07T06:44:32;5.07;;;3.58;;
57047;SDS011;42934;54.294;18.598;2023-05-07T06:47:08;5.93;;;3.13;;
57047;SDS011;42934;54.294;18.598;2023-05-07T06:49:41;5.57;;;3.10;;
57047;SDS011;42934;54.294;18.598;2023-05-07T06:52:14;6.40;;;3.33;;
57047;SDS011;42934;54.294;18.598;2023-05-07T06:54:45;5.07;;;3.10;;
57047;SDS011;42934;54.294;18.598;2023-05-07T06:57:16;5.25;;;2.83;;
57047;SDS011;42934;54.294;18.598;2023-05-07T06:59:46;5.77;;;2.93;;
57047;SDS011;42934;54.294;18.598;2023-05-07T07:02:16;6.20;;;3.10;;
57047;SDS011;42934;54.294;18.598;2023-05-07T07:04:48;7.25;;;3.10;;
57047;SDS011;42934;54.294;18.598;2023-05-07T07:07:19;7.25;;;2.80;;
57047;SDS011;42934;54.294;18.598;2023-05-07T07:09:49;6.63;;;3.10;;
57047;SDS011;42934;54.294;18.598;2023-05-07T07:12:19;5.60;;;3.17;;
57047;SDS011;42934;54.294;18.598;2023-05-07T07:14:49;3.92;;;2.70;;
57047;SDS011;42934;54.294;18.598;2023-05-07T07:17:22;5.70;;;2.78;;
57047;SDS011;42934;54.294;18.598;2023-05-07T07:19:54;5.20;;;2.63;;
57047;SDS011;42934;54.294;18.598;2023-05-07T07:22:23;5.82;;;2.95;;
57047;SDS011;42934;54.294;18.598;2023-05-07T07:24:53;5.85;;;2.67;;
57047;SDS011;42934;54.294;18.598;2023-05-07T07:27:22;4.28;;;2.40;;
57047;SDS011;42934;54.294;18.598;2023-05-07T07:29:52;4.10;;;2.77;;
57047;SDS011;42934;54.294;18.598;2023-05-07T07:32:22;4.43;;;2.50;;
57047;SDS011;42934;54.294;18.598;2023-05-07T07:34:53;5.82;;;2.65;;
57047;SDS011;42934;54.294;18.598;2023-05-07T07:37:22;4.80;;;2.42;;
57047;SDS011;42934;54.294;18.598;2023-05-07T07:39:52;3.90;;;2.30;;
57047;SDS011;42934;54.294;18.598;2023-05-07T07:42:21;5.38;;;2.55;;
57047;SDS011;42934;54.294;18.598;2023-05-07T07:44:51;3.30;;;2.25;;
57047;SDS011;42934;54.294;18.598;2023-05-07T07:47:23;9.32;;;3.20;;
57047;SDS011;42934;54.294;18.598;2023-05-07T07:49:53;4.35;;;2.50;;
57047;SDS011;42934;54.294;18.598;2023-05-07T07:52:22;5.22;;;2.42;;
57047;SDS011;42934;54.294;18.598;2023-05-07T07:54:51;6.03;;;2.60;;
57047;SDS011;42934;54.294;18.598;2023-05-07T07:57:21;9.02;;;2.35;;
57047;SDS011;42934;54.294;18.598;2023-05-07T07:59:50;4.50;;;2.20;;
57047;SDS011;42934;54.294;18.598;2023-05-07T08:02:20;3.55;;;2.30;;
57047;SDS011;42934;54.294;18.598;2023-05-07T08:04:51;6.13;;;2.47;;
57047;SDS011;42934;54.294;18.598;2023-05-07T08:07:21;3.15;;;1.95;;
57047;SDS011;42934;54.294;18.598;2023-05-07T08:09:50;3.73;;;2.00;;
57047;SDS011;42934;54.294;18.598;2023-05-07T08:12:22;2.67;;;2.10;;
57047;SDS011;42934;54.294;18.598;2023-05-07T08:14:53;3.85;;;2.00;;
57047;SDS011;42934;54.294;18.598;2023-05-07T08:17:22;5.80;;;1.90;;
57047;SDS011;42934;54.294;18.598;2023-05-07T08:19:53;2.78;;;2.15;;
57047;SDS011;42934;54.294;18.598;2023-05-07T08:22:22;3.22;;;1.90;;
57047;SDS011;42934;54.294;18.598;2023-05-07T08:24:52;3.78;;;1.95;;
57047;SDS011;42934;54.294;18.598;2023-05-07T08:27:21;3.78;;;1.90;;
57047;SDS011;42934;54.294;18.598;2023-05-07T08:29:50;3.07;;;1.70;;
57047;SDS011;42934;54.294;18.598;2023-05-07T08:32:20;5.03;;;1.50;;
57047;SDS011;42934;54.294;18.598;2023-05-07T08:34:50;4.47;;;1.85;;
57047;SDS011;42934;54.294;18.598;2023-05-07T08:37:21;3.28;;;1.73;;
57047;SDS011;42934;54.294;18.598;2023-05-07T08:39:50;4.53;;;1.70;;
57047;SDS011;42934;54.294;18.598;2023-05-07T08:42:22;4.28;;;1.73;;
57047;SDS011;42934;54.294;18.598;2023-05-07T08:44:52;6.95;;;1.80;;
57047;SDS011;42934;54.294;18.598;2023-05-07T08:47:28;3.47;;;1.70;;
57047;SDS011;42934;54.294;18.598;2023-05-07T08:50:04;2.95;;;1.50;;
57047;SDS011;42934;54.294;18.598;2023-05-07T08:52:35;4.03;;;1.63;;
57047;SDS011;42934;54.294;18.598;2023-05-07T08:55:05;2.83;;;1.55;;
57047;SDS011;42934;54.294;18.598;2023-05-07T08:57:36;3.13;;;1.63;;
57047;SDS011;42934;54.294;18.598;2023-05-07T09:00:08;3.58;;;1.60;;
57047;SDS011;42934;54.294;18.598;2023-05-07T09:02:39;2.67;;;1.70;;
57047;SDS011;42934;54.294;18.598;2023-05-07T09:05:11;3.30;;;1.90;;
57047;SDS011;42934;54.294;18.598;2023-05-07T09:07:40;1.50;;;1.40;;
57047;SDS011;42934;54.294;18.598;2023-05-07T09:12:41;6.28;;;2.28;;
57047;SDS011;42934;54.294;18.598;2023-05-07T09:15:12;4.65;;;3.05;;
57047;SDS011;42934;54.294;18.598;2023-05-07T09:17:42;3.58;;;2.40;;
57047;SDS011;42934;54.294;18.598;2023-05-07T09:20:14;6.32;;;2.40;;
57047;SDS011;42934;54.294;18.598;2023-05-07T09:22:45;6.25;;;2.80;;
57047;SDS011;42934;54.294;18.598;2023-05-07T09:25:16;13.55;;;2.85;;
57047;SDS011;42934;54.294;18.598;2023-05-07T09:27:58;2.67;;;2.20;;
57047;SDS011;42934;54.294;18.598;2023-05-07T09:30:28;4.03;;;2.22;;
57047;SDS011;42934;54.294;18.598;2023-05-07T09:33:03;4.53;;;2.38;;
57047;SDS011;42934;54.294;18.598;2023-05-07T09:35:37;5.70;;;2.50;;
57047;SDS011;42934;54.294;18.598;2023-05-07T09:38:11;4.65;;;2.53;;
57047;SDS011;42934;54.294;18.598;2023-05-07T09:43:13;5.50;;;2.60;;
57047;SDS011;42934;54.294;18.598;2023-05-07T09:45:52;3.03;;;2.15;;
57047;SDS011;42934;54.294;18.598;2023-05-07T09:48:24;3.65;;;1.85;;
57047;SDS011;42934;54.294;18.598;2023-05-07T09:50:57;5.35;;;2.45;;
57047;SDS011;42934;54.294;18.598;2023-05-07T09:53:33;4.10;;;2.00;;
57047;SDS011;42934;54.294;18.598;2023-05-07T09:56:04;7.03;;;2.47;;
57047;SDS011;42934;54.294;18.598;2023-05-07T09:58:34;3.63;;;2.25;;
57047;SDS011;42934;54.294;18.598;2023-05-07T10:01:08;3.47;;;2.00;;
57047;SDS011;42934;54.294;18.598;2023-05-07T10:03:41;4.15;;;2.03;;
57047;SDS011;42934;54.294;18.598;2023-05-07T10:06:13;8.82;;;2.70;;
57047;SDS011;42934;54.294;18.598;2023-05-07T10:08:43;3.00;;;1.80;;
57047;SDS011;42934;54.294;18.598;2023-05-07T10:11:13;3.15;;;1.70;;
57047;SDS011;42934;54.294;18.598;2023-05-07T10:13:43;2.78;;;1.92;;
57047;SDS011;42934;54.294;18.598;2023-05-07T10:16:15;2.08;;;1.65;;
57047;SDS011;42934;54.294;18.598;2023-05-07T10:18:47;14.88;;;2.10;;
57047;SDS011;42934;54.294;18.598;2023-05-07T10:21:23;2.28;;;1.70;;
57047;SDS011;42934;54.294;18.598;2023-05-07T10:23:59;4.40;;;1.77;;
57047;SDS011;42934;54.294;18.598;2023-05-07T10:26:34;2.80;;;1.80;;
57047;SDS011;42934;54.294;18.598;2023-05-07T10:29:05;7.35;;;2.10;;
57047;SDS011;42934;54.294;18.598;2023-05-07T10:31:48;6.68;;;2.08;;
57047;SDS011;42934;54.294;18.598;2023-05-07T10:34:26;2.50;;;1.70;;
57047;SDS011;42934;54.294;18.598;2023-05-07T10:37:02;2.80;;;1.60;;
57047;SDS011;42934;54.294;18.598;2023-05-07T10:39:32;4.55;;;1.70;;
57047;SDS011;42934;54.294;18.598;2023-05-07T10:42:09;3.85;;;1.67;;
57047;SDS011;42934;54.294;18.598;2023-05-07T10:44:44;7.43;;;1.90;;
57047;SDS011;42934;54.294;18.598;2023-05-07T10:47:21;2.08;;;1.65;;
57047;SDS011;42934;54.294;18.598;2023-05-07T10:56:24;3.22;;;1.60;;
57047;SDS011;42934;54.294;18.598;2023-05-07T11:02:17;2.00;;;1.60;;
57047;SDS011;42934;54.294;18.598;2023-05-07T11:08:06;4.40;;;1.65;;
57047;SDS011;42934;54.294;18.598;2023-05-07T11:11:03;6.97;;;1.70;;
57047;SDS011;42934;54.294;18.598;2023-05-07T11:13:41;4.40;;;1.63;;
57047;SDS011;42934;54.294;18.598;2023-05-07T11:16:23;3.53;;;1.60;;
57047;SDS011;42934;54.294;18.598;2023-05-07T11:19:05;3.67;;;1.40;;
57047;SDS011;42934;54.294;18.598;2023-05-07T11:21:42;6.72;;;1.90;;
57047;SDS011;42934;54.294;18.598;2023-05-07T11:24:37;6.63;;;2.00;;
57047;SDS011;42934;54.294;18.598;2023-05-07T11:27:11;7.38;;;1.95;;
57047;SDS011;42934;54.294;18.598;2023-05-07T11:29:41;3.25;;;1.98;;
57047;SDS011;42934;54.294;18.598;2023-05-07T11:32:15;2.22;;;1.70;;
57047;SDS011;42934;54.294;18.598;2023-05-07T11:34:52;6.78;;;2.25;;
57047;SDS011;42934;54.294;18.598;2023-05-07T11:37:24;3.72;;;2.15;;
57047;SDS011;42934;54.294;18.598;2023-05-07T11:40:04;3.65;;;2.00;;
57047;SDS011;42934;54.294;18.598;2023-05-07T11:42:36;3.58;;;2.05;;
57047;SDS011;42934;54.294;18.598;2023-05-07T11:45:07;6.25;;;2.17;;
57047;SDS011;42934;54.294;18.598;2023-05-07T11:47:38;2.97;;;2.28;;
57047;SDS011;42934;54.294;18.598;2023-05-07T11:50:10;2.90;;;1.80;;
57047;SDS011;42934;54.294;18.598;2023-05-07T11:52:40;4.60;;;2.10;;
57047;SDS011;42934;54.294;18.598;2023-05-07T11:55:19;4.40;;;2.03;;
57047;SDS011;42934;54.294;18.598;2023-05-07T11:57:52;3.92;;;1.92;;
57047;SDS011;42934;54.294;18.598;2023-05-07T12:00:21;3.08;;;2.17;;
57047;SDS011;42934;54.294;18.598;2023-05-07T12:02:50;4.10;;;1.90;;
57047;SDS011;42934;54.294;18.598;2023-05-07T12:05:20;3.97;;;2.10;;
57047;SDS011;42934;54.294;18.598;2023-05-07T12:07:51;3.70;;;2.38;;
57047;SDS011;42934;54.294;18.598;2023-05-07T12:10:26;3.53;;;1.85;;
57047;SDS011;42934;54.294;18.598;2023-05-07T12:12:56;5.45;;;1.95;;
57047;SDS011;42934;54.294;18.598;2023-05-07T12:15:26;8.55;;;2.00;;
57047;SDS011;42934;54.294;18.598;2023-05-07T12:17:56;4.43;;;1.95;;
57047;SDS011;42934;54.294;18.598;2023-05-07T12:20:25;3.40;;;2.25;;
57047;SDS011;42934;54.294;18.598;2023-05-07T12:22:55;8.15;;;2.80;;
57047;SDS011;42934;54.294;18.598;2023-05-07T12:25:25;5.03;;;2.42;;
57047;SDS011;42934;54.294;18.598;2023-05-07T12:27:54;4.22;;;2.17;;
57047;SDS011;42934;54.294;18.598;2023-05-07T12:30:25;3.55;;;2.45;;
57047;SDS011;42934;54.294;18.598;2023-05-07T12:32:55;3.35;;;2.20;;
57047;SDS011;42934;54.294;18.598;2023-05-07T12:35:27;5.03;;;2.30;;
57047;SDS011;42934;54.294;18.598;2023-05-07T12:37:57;6.18;;;2.55;;
57047;SDS011;42934;54.294;18.598;2023-05-07T12:40:35;5.57;;;2.63;;
57047;SDS011;42934;54.294;18.598;2023-05-07T12:43:06;5.75;;;2.40;;
57047;SDS011;42934;54.294;18.598;2023-05-07T12:45:36;5.50;;;2.60;;
57047;SDS011;42934;54.294;18.598;2023-05-07T12:48:06;5.28;;;2.30;;
57047;SDS011;42934;54.294;18.598;2023-05-07T12:50:38;3.42;;;2.13;;
57047;SDS011;42934;54.294;18.598;2023-05-07T12:53:08;4.55;;;2.40;;
57047;SDS011;42934;54.294;18.598;2023-05-07T12:55:42;3.22;;;2.30;;
57047;SDS011;42934;54.294;18.598;2023-05-07T12:58:18;3.38;;;1.95;;
57047;SDS011;42934;54.294;18.598;2023-05-07T13:00:48;5.95;;;1.98;;
57047;SDS011;42934;54.294;18.598;2023-05-07T13:03:22;3.28;;;2.42;;
57047;SDS011;42934;54.294;18.598;2023-05-07T13:05:53;4.70;;;2.60;;
57047;SDS011;42934;54.294;18.598;2023-05-07T13:08:26;12.52;;;2.90;;
57047;SDS011;42934;54.294;18.598;2023-05-07T13:10:57;6.30;;;2.30;;
57047;SDS011;42934;54.294;18.598;2023-05-07T13:13:31;2.67;;;2.20;;
57047;SDS011;42934;54.294;18.598;2023-05-07T13:16:02;5.20;;;2.47;;
57047;SDS011;42934;54.294;18.598;2023-05-07T13:18:33;7.22;;;2.45;;
57047;SDS011;42934;54.294;18.598;2023-05-07T13:21:02;4.63;;;2.50;;
57047;SDS011;42934;54.294;18.598;2023-05-07T13:23:32;4.43;;;2.70;;
57047;SDS011;42934;54.294;18.598;2023-05-07T13:26:01;5.82;;;2.60;;
57047;SDS011;42934;54.294;18.598;2023-05-07T13:28:52;6.18;;;2.40;;
57047;SDS011;42934;54.294;18.598;2023-05-07T13:31:21;3.97;;;2.28;;
57047;SDS011;42934;54.294;18.598;2023-05-07T13:33:50;5.90;;;2.92;;
57047;SDS011;42934;54.294;18.598;2023-05-07T13:36:20;5.15;;;2.22;;
57047;SDS011;42934;54.294;18.598;2023-05-07T13:38:49;4.65;;;2.63;;
57047;SDS011;42934;54.294;18.598;2023-05-07T13:41:19;5.22;;;2.50;;
57047;SDS011;42934;54.294;18.598;2023-05-07T13:43:48;3.72;;;2.75;;
57047;SDS011;42934;54.294;18.598;2023-05-07T13:46:18;7.78;;;2.83;;
57047;SDS011;42934;54.294;18.598;2023-05-07T13:48:48;6.85;;;2.72;;
57047;SDS011;42934;54.294;18.598;2023-05-07T13:51:17;4.22;;;2.78;;
57047;SDS011;42934;54.294;18.598;2023-05-07T13:53:47;6.50;;;2.90;;
57047;SDS011;42934;54.294;18.598;2023-05-07T13:56:17;8.05;;;3.00;;
57047;SDS011;42934;54.294;18.598;2023-05-07T13:58:47;6.22;;;2.75;;
57047;SDS011;42934;54.294;18.598;2023-05-07T14:01:27;5.47;;;2.53;;
57047;SDS011;42934;54.294;18.598;2023-05-07T14:03:57;4.47;;;2.95;;
57047;SDS011;42934;54.294;18.598;2023-05-07T14:06:26;3.60;;;2.60;;
57047;SDS011;42934;54.294;18.598;2023-05-07T14:08:55;9.32;;;2.80;;
57047;SDS011;42934;54.294;18.598;2023-05-07T14:11:25;8.45;;;2.85;;
57047;SDS011;42934;54.294;18.598;2023-05-07T14:13:54;4.22;;;2.67;;
57047;SDS011;42934;54.294;18.598;2023-05-07T14:16:23;5.40;;;2.90;;
57047;SDS011;42934;54.294;18.598;2023-05-07T14:18:54;10.68;;;3.28;;
57047;SDS011;42934;54.294;18.598;2023-05-07T14:21:24;6.82;;;2.85;;
57047;SDS011;42934;54.294;18.598;2023-05-07T14:23:53;5.25;;;3.15;;
57047;SDS011;42934;54.294;18.598;2023-05-07T14:26:23;7.30;;;3.33;;
57047;SDS011;42934;54.294;18.598;2023-05-07T14:28:54;7.07;;;3.35;;
57047;SDS011;42934;54.294;18.598;2023-05-07T14:31:24;6.90;;;3.20;;
57047;SDS011;42934;54.294;18.598;2023-05-07T14:33:55;5.97;;;3.20;;
57047;SDS011;42934;54.294;18.598;2023-05-07T14:36:25;9.05;;;3.10;;
57047;SDS011;42934;54.294;18.598;2023-05-07T14:38:57;11.02;;;3.60;;
57047;SDS011;42934;54.294;18.598;2023-05-07T14:41:27;7.32;;;3.72;;
57047;SDS011;42934;54.294;18.598;2023-05-07T14:43:56;8.60;;;3.20;;
57047;SDS011;42934;54.294;18.598;2023-05-07T14:46:26;6.97;;;3.60;;
57047;SDS011;42934;54.294;18.598;2023-05-07T14:48:57;5.70;;;3.22;;
57047;SDS011;42934;54.294;18.598;2023-05-07T14:51:26;8.13;;;3.10;;
57047;SDS011;42934;54.294;18.598;2023-05-07T14:53:56;9.45;;;3.58;;
57047;SDS011;42934;54.294;18.598;2023-05-07T14:56:25;7.43;;;3.50;;
57047;SDS011;42934;54.294;18.598;2023-05-07T14:58:54;6.07;;;3.72;;
57047;SDS011;42934;54.294;18.598;2023-05-07T15:01:25;5.38;;;3.00;;
57047;SDS011;42934;54.294;18.598;2023-05-07T15:03:54;8.40;;;3.45;;
57047;SDS011;42934;54.294;18.598;2023-05-07T15:06:25;9.50;;;3.15;;
57047;SDS011;42934;54.294;18.598;2023-05-07T15:08:55;5.63;;;3.00;;
57047;SDS011;42934;54.294;18.598;2023-05-07T15:11:24;4.03;;;2.67;;
57047;SDS011;42934;54.294;18.598;2023-05-07T15:13:53;5.88;;;2.63;;
57047;SDS011;42934;54.294;18.598;2023-05-07T15:16:22;4.75;;;2.85;;
57047;SDS011;42934;54.294;18.598;2023-05-07T15:18:52;3.63;;;2.63;;
57047;SDS011;42934;54.294;18.598;2023-05-07T15:21:23;5.80;;;2.20;;